createdAt,value
2019-01-16T12:39:02.705Z,6.78
2019-01-16T12:40:03.214Z,5.39
2019-01-16T12:41:02.877Z,6.84
2019-01-16T12:42:03.089Z,6.02
2019-01-16T12:43:03.451Z,5.45
2019-01-16T12:44:03.481Z,5.82
2019-01-16T12:45:03.577Z,6.29
2019-01-16T12:46:02.667Z,5.7
2019-01-16T12:47:02.845Z,6.51
2019-01-16T12:48:03.434Z,4.99
2019-01-16T12:49:03.330Z,5.32
2019-01-16T12:50:03.536Z,5.49
2019-01-16T12:51:03.586Z,5.75
2019-01-16T12:52:03.423Z,6.14
2019-01-16T12:53:02.987Z,5.41
2019-01-16T12:54:03.036Z,6.06
2019-01-16T12:55:03.158Z,6.66
2019-01-16T12:56:03.678Z,6.13
2019-01-16T12:57:02.868Z,5.78
2019-01-16T12:58:03.741Z,6.11
2019-01-16T12:59:02.725Z,6.25
2019-01-16T13:00:03.155Z,6.06
2019-01-16T13:01:03.770Z,6.25
2019-01-16T13:02:02.688Z,6.38
2019-01-16T13:03:03.446Z,5.24
2019-01-16T13:04:03.116Z,5.02
2019-01-16T13:05:03.702Z,5.41
2019-01-16T13:06:03.401Z,5.91
2019-01-16T13:07:03.460Z,5.65
2019-01-16T13:08:02.989Z,5.52
2019-01-16T13:09:03.427Z,6.09
2019-01-16T13:10:03.045Z,5.94
2019-01-16T13:11:02.923Z,4.97
2019-01-16T13:12:03.301Z,6.2
2019-01-16T13:13:03.319Z,6.37
2019-01-16T13:14:03.076Z,6.37
2019-01-16T13:15:03.542Z,5.29
2019-01-16T13:16:03.568Z,6.41
2019-01-16T13:17:03.180Z,6.41
2019-01-16T13:18:03.669Z,5.31
2019-01-16T13:19:02.651Z,5.19
2019-01-16T13:20:03.439Z,5.46
2019-01-16T13:21:03.412Z,5.54
2019-01-16T13:22:02.850Z,5.81
2019-01-16T13:23:03.239Z,6.54
2019-01-16T13:24:02.913Z,5.72
2019-01-16T13:25:03.100Z,6.34
2019-01-16T13:26:02.699Z,5.81
2019-01-16T13:27:03.278Z,5.77
2019-01-16T13:28:03.764Z,6.38
2019-01-16T13:29:03.684Z,5.89
2019-01-16T13:30:03.551Z,6.05
2019-01-16T13:31:03.347Z,5.41
2019-01-16T13:32:03.411Z,5.71
2019-01-16T13:33:02.932Z,5.19
2019-01-16T13:34:02.719Z,5.41
2019-01-16T13:35:02.791Z,5.66
2019-01-16T13:36:02.964Z,6.01
2019-01-16T13:37:03.732Z,7.38
2019-01-16T13:38:02.891Z,8
2019-01-16T13:39:03.127Z,6.68
2019-01-16T13:40:03.372Z,6.61
2019-01-16T13:41:03.388Z,5.64
2019-01-16T13:42:02.624Z,5.88
2019-01-16T13:43:03.313Z,5.22
2019-01-16T13:44:03.221Z,5.42
2019-01-16T13:45:03.108Z,4.89
2019-01-16T13:46:03.260Z,5.54
2019-01-16T13:47:02.871Z,5.05
2019-01-16T13:48:03.699Z,5.06
2019-01-16T13:49:03.548Z,5.52
2019-01-16T13:50:02.696Z,5.54
2019-01-16T13:51:03.462Z,5.05
2019-01-16T13:52:02.657Z,5.66
2019-01-16T13:53:03.550Z,7.04
2019-01-16T13:54:03.250Z,6.56
2019-01-16T13:55:02.789Z,5.53
2019-01-16T13:56:03.469Z,48.15
2019-01-16T13:57:03.157Z,23.91
2019-01-16T13:58:03.228Z,16.95
2019-01-16T13:59:03.418Z,7.78
2019-01-16T14:00:03.481Z,5.66
2019-01-16T14:01:02.901Z,6.65
2019-01-16T14:02:02.763Z,9.22
2019-01-16T14:03:03.323Z,9.22
2019-01-16T14:04:02.768Z,7.6
2019-01-16T14:05:03.254Z,12.7
2019-01-16T14:06:02.802Z,12.7
2019-01-16T14:07:03.730Z,5.46
2019-01-16T14:08:03.141Z,6.35
2019-01-16T14:09:03.519Z,5.09
2019-01-16T14:10:03.709Z,7.49
2019-01-16T14:11:03.469Z,10.98
2019-01-16T14:12:02.889Z,5.45
2019-01-16T14:13:03.036Z,5.17
2019-01-16T14:14:03.604Z,4.47
2019-01-16T14:15:03.764Z,4.03
2019-01-16T14:16:03.155Z,4.71
2019-01-16T14:17:03.044Z,4.8
2019-01-16T14:18:03.337Z,4.74
2019-01-16T14:19:03.431Z,4.82
2019-01-16T14:20:03.044Z,4.76
2019-01-16T14:21:02.983Z,4.42
2019-01-16T14:22:03.668Z,4.26
2019-01-16T14:23:03.094Z,4.03
2019-01-16T14:24:02.721Z,4.33
2019-01-16T14:25:03.058Z,4.04
2019-01-16T14:26:02.946Z,3.75
2019-01-16T14:27:03.158Z,4.36
2019-01-16T14:28:02.762Z,4.65
2019-01-16T14:29:02.730Z,5.46
2019-01-16T14:30:03.786Z,4.83
2019-01-16T14:31:03.282Z,5
2019-01-16T14:32:02.921Z,5.14
2019-01-16T14:33:03.281Z,5.33
2019-01-16T14:34:02.754Z,5.36
2019-01-16T14:35:03.334Z,4.85
2019-01-16T14:36:03.103Z,4.64
2019-01-16T14:37:03.434Z,5.05
2019-01-16T14:38:03.665Z,4.75
2019-01-16T14:39:02.751Z,4.68
2019-01-16T14:40:02.925Z,5.42
2019-01-16T14:41:03.390Z,4.66
2019-01-16T14:42:03.028Z,4.96
2019-01-16T14:43:03.506Z,5.77
2019-01-16T14:44:03.386Z,5.65
2019-01-16T14:45:03.383Z,4.99
2019-01-16T14:46:03.116Z,5.56
2019-01-16T14:47:02.729Z,5.48
2019-01-16T14:48:03.007Z,5.55
2019-01-16T14:49:02.572Z,5.1
2019-01-16T14:50:03.118Z,6.17
2019-01-16T14:51:03.866Z,7.54
2019-01-16T14:52:03.230Z,7.54
2019-01-16T14:53:02.956Z,6.62
2019-01-16T14:54:03.570Z,6.62
2019-01-16T14:55:06.599Z,7.18
2019-01-16T14:56:03.443Z,6.28
2019-01-16T14:57:03.585Z,6.56
2019-01-16T14:58:03.432Z,7.68
2019-01-16T14:59:03.330Z,7.12
2019-01-16T15:00:02.903Z,7.32
2019-01-16T15:01:02.945Z,6.3
2019-01-16T15:02:02.644Z,6.06
2019-01-16T15:03:02.693Z,5.65
2019-01-16T15:04:03.603Z,6.76
2019-01-16T15:05:03.082Z,6.67
2019-01-16T15:06:03.093Z,5.68
2019-01-16T15:07:03.396Z,5.85
2019-01-16T15:08:03.440Z,5.71
2019-01-16T15:09:02.718Z,6.45
2019-01-16T15:10:03.389Z,6.18
2019-01-16T15:11:03.397Z,5.59
2019-01-16T15:12:02.916Z,6.38
2019-01-16T15:13:03.460Z,10.52
2019-01-16T15:14:03.499Z,7.45
2019-01-16T15:15:02.861Z,7.71
2019-01-16T15:16:03.395Z,6.61
2019-01-16T15:17:03.540Z,7.14
2019-01-16T15:18:02.559Z,6.19
2019-01-16T15:19:03.812Z,5.14
2019-01-16T15:20:03.713Z,7.43
2019-01-16T15:21:03.244Z,7.91
2019-01-16T15:22:06.611Z,6.58
2019-01-16T15:23:03.391Z,6.83
2019-01-16T15:24:03.531Z,6.87
2019-01-16T15:25:03.653Z,7.74
2019-01-16T15:26:03.072Z,8.32
2019-01-16T15:27:03.251Z,9.45
2019-01-16T15:28:02.657Z,10.31
2019-01-16T15:29:02.643Z,17.42
2019-01-16T15:30:03.235Z,16.31
2019-01-16T15:31:03.120Z,17.86
2019-01-16T15:32:02.669Z,20.09
2019-01-16T15:33:02.970Z,18.32
2019-01-16T15:34:02.873Z,13.92
2019-01-16T15:35:03.687Z,11.7
2019-01-16T15:36:03.541Z,11.65
2019-01-16T15:37:03.622Z,13.85
2019-01-16T15:38:03.357Z,13.12
2019-01-16T15:39:02.796Z,13.63
2019-01-16T15:40:03.326Z,17.62
2019-01-16T15:41:03.233Z,17.77
2019-01-16T15:42:02.893Z,20.93
2019-01-16T15:43:03.468Z,20.93
2019-01-16T15:44:02.904Z,21.25
2019-01-16T15:45:02.647Z,15.31
2019-01-16T15:46:02.898Z,15.31
2019-01-16T15:47:03.197Z,18.41
2019-01-16T15:48:02.844Z,18.35
2019-01-16T15:49:03.631Z,19.29
2019-01-16T15:50:03.709Z,15.89
2019-01-16T15:51:03.580Z,14.16
2019-01-16T15:52:03.067Z,13.46
2019-01-16T15:53:03.637Z,11.32
2019-01-16T15:54:02.997Z,10.68
2019-01-16T15:55:02.941Z,14.02
2019-01-16T15:56:02.843Z,15.65
2019-01-16T15:57:03.089Z,13.24
2019-01-16T15:58:03.062Z,14
2019-01-16T15:59:03.052Z,19.71
2019-01-16T16:00:03.097Z,29.32
2019-01-16T16:01:03.030Z,29.94
2019-01-16T16:02:03.252Z,28.64
2019-01-16T16:03:02.910Z,21.46
2019-01-16T16:04:02.998Z,13.62
2019-01-16T16:05:03.153Z,13.82
2019-01-16T16:06:03.494Z,18.02
2019-01-16T16:07:03.506Z,16.68
2019-01-16T16:08:02.702Z,16.44
2019-01-16T16:09:03.614Z,13.84
2019-01-16T16:10:03.285Z,11.56
2019-01-16T16:11:02.899Z,11.75
2019-01-16T16:12:03.566Z,11.05
2019-01-16T16:13:03.296Z,11.45
2019-01-16T16:14:03.369Z,10.22
2019-01-16T16:15:03.779Z,10.65
2019-01-16T16:16:03.596Z,9.92
2019-01-16T16:17:03.623Z,13.15
2019-01-16T16:18:02.717Z,12.8
2019-01-16T16:19:02.816Z,11.38
2019-01-16T16:20:03.385Z,10.05
2019-01-16T16:21:03.010Z,11.33
2019-01-16T16:22:02.956Z,10.22
2019-01-16T16:23:03.058Z,10.56
2019-01-16T16:24:03.496Z,9.93
2019-01-16T16:25:02.528Z,9.8
2019-01-16T16:26:02.987Z,8.98
2019-01-16T16:27:03.075Z,10.22
2019-01-16T16:28:02.965Z,10.57
2019-01-16T16:29:02.679Z,9.72
2019-01-16T16:30:03.223Z,10.42
2019-01-16T16:31:02.988Z,10.42
2019-01-16T16:32:03.481Z,11.01
2019-01-16T16:33:03.697Z,10.59
2019-01-16T16:34:02.789Z,10.9
2019-01-16T16:35:03.229Z,10.52
2019-01-16T16:36:02.881Z,11.6
2019-01-16T16:37:03.516Z,11.72
2019-01-16T16:38:04.667Z,11.17
2019-01-16T16:39:02.619Z,10.84
2019-01-16T16:40:03.511Z,11.83
2019-01-16T16:41:03.822Z,11.26
2019-01-16T16:42:03.621Z,12.77
2019-01-16T16:43:03.060Z,13.05
2019-01-16T16:44:03.405Z,23.99
2019-01-16T16:45:03.485Z,14.72
2019-01-16T16:46:03.400Z,13.76
2019-01-16T16:47:03.155Z,12.82
2019-01-16T16:48:03.066Z,12.39
2019-01-16T16:49:03.211Z,12.84
2019-01-16T16:50:03.101Z,9.82
2019-01-16T16:51:02.904Z,11.55
2019-01-16T16:52:02.899Z,11.22
2019-01-16T16:53:03.376Z,12.26
2019-01-16T16:54:03.695Z,12.78
2019-01-16T16:55:03.659Z,11.38
2019-01-16T16:56:03.299Z,12.82
2019-01-16T16:57:03.115Z,12.46
2019-01-16T16:58:02.916Z,12.04
2019-01-16T16:59:03.585Z,12.08
2019-01-16T17:00:03.046Z,12.15
2019-01-16T17:01:03.294Z,12.39
2019-01-16T17:02:03.325Z,11.13
2019-01-16T17:03:03.183Z,12.25
2019-01-16T17:04:02.952Z,11.11
2019-01-16T17:05:03.329Z,11.73
2019-01-16T17:06:02.715Z,10.95
2019-01-16T17:07:03.384Z,10.95
2019-01-16T17:08:02.825Z,11.13
2019-01-16T17:09:03.509Z,11.45
2019-01-16T17:10:02.884Z,12.04
2019-01-16T17:11:03.408Z,12.21
2019-01-16T17:12:03.132Z,11.19
2019-01-16T17:13:03.363Z,12.79
2019-01-16T17:14:03.627Z,12.86
2019-01-16T17:15:03.154Z,12.41
2019-01-16T17:16:02.759Z,11.52
2019-01-16T17:17:02.867Z,12.15
2019-01-16T17:18:03.100Z,11.26
2019-01-16T17:19:03.528Z,12.25
2019-01-16T17:20:03.850Z,12.25
2019-01-16T17:21:03.204Z,12.05
2019-01-16T17:22:02.837Z,12.92
2019-01-16T17:23:03.514Z,12.92
2019-01-16T17:24:02.796Z,12.52
2019-01-16T17:25:03.358Z,10.86
2019-01-16T17:26:03.339Z,10.7
2019-01-16T17:27:03.254Z,11.92
2019-01-16T17:28:02.955Z,11.74
2019-01-16T17:29:02.929Z,13.16
2019-01-16T17:30:02.879Z,12.22
2019-01-16T17:31:03.135Z,12.09
2019-01-16T17:32:03.308Z,11.71
2019-01-16T17:33:02.619Z,10.88
2019-01-16T17:34:02.878Z,9.34
2019-01-16T17:35:03.692Z,9.48
2019-01-16T17:36:03.196Z,10.22
2019-01-16T17:37:02.898Z,10.09
2019-01-16T17:38:03.541Z,9.41
2019-01-16T17:39:03.644Z,9.08
2019-01-16T17:40:03.568Z,8.43
2019-01-16T17:41:03.203Z,8.26
2019-01-16T17:42:03.084Z,7.99
2019-01-16T17:43:03.571Z,7.81
2019-01-16T17:44:03.037Z,8.17
2019-01-16T17:45:03.217Z,7.91
2019-01-16T17:46:02.661Z,8.9
2019-01-16T17:47:03.276Z,8.55
2019-01-16T17:48:03.288Z,8.58
2019-01-16T17:49:03.732Z,8.44
2019-01-16T17:50:03.598Z,8.55
2019-01-16T17:51:03.045Z,8.54
2019-01-16T17:52:03.134Z,9.09
2019-01-16T17:53:03.015Z,7.99
2019-01-16T17:54:03.112Z,9.04
2019-01-16T17:55:02.799Z,8.52
2019-01-16T17:56:03.189Z,7.99
2019-01-16T17:57:03.101Z,7.88
2019-01-16T17:58:02.948Z,8.68
2019-01-16T17:59:02.936Z,8.06
2019-01-16T18:00:02.924Z,9.65
2019-01-16T18:01:03.045Z,8.79
2019-01-16T18:02:03.138Z,8.93
2019-01-16T18:03:03.165Z,8.88
2019-01-16T18:04:03.561Z,9.12
2019-01-16T18:05:03.177Z,9.05
2019-01-16T18:06:03.344Z,9.51
2019-01-16T18:07:03.580Z,9.21
2019-01-16T18:08:03.458Z,8.62
2019-01-16T18:09:03.709Z,8.62
2019-01-16T18:10:03.228Z,9.75
2019-01-16T18:11:03.198Z,9.75
2019-01-16T18:12:03.049Z,8.47
2019-01-16T18:13:03.431Z,8.8
2019-01-16T18:14:03.039Z,9.1
2019-01-16T18:15:03.453Z,9.74
2019-01-16T18:16:02.968Z,10.09
2019-01-16T18:17:02.788Z,8.81
2019-01-16T18:18:02.702Z,8.74
2019-01-16T18:19:03.179Z,9.01
2019-01-16T18:20:03.038Z,10.15
2019-01-16T18:21:03.734Z,9.94
2019-01-16T18:22:03.434Z,8.88
2019-01-16T18:23:03.761Z,9.32
2019-01-16T18:24:03.562Z,9.42
2019-01-16T18:25:03.499Z,9.12
2019-01-16T18:26:03.407Z,9.67
2019-01-16T18:27:03.478Z,8.32
2019-01-16T18:28:02.991Z,8.66
2019-01-16T18:29:03.580Z,8.5
2019-01-16T18:30:02.811Z,9.13
2019-01-16T18:31:03.303Z,9.21
2019-01-16T18:32:02.901Z,10.38
2019-01-16T18:33:02.690Z,10.13
2019-01-16T18:34:03.471Z,9.76
2019-01-16T18:35:02.980Z,9.48
2019-01-16T18:36:02.726Z,8.79
2019-01-16T18:37:02.725Z,9.15
2019-01-16T18:38:02.876Z,8.46
2019-01-16T18:39:03.143Z,7.57
2019-01-16T18:40:03.026Z,7.51
2019-01-16T18:41:03.330Z,8.27
2019-01-16T18:42:02.879Z,9.29
2019-01-16T18:43:02.719Z,7.89
2019-01-16T18:44:03.180Z,7.74
2019-01-16T18:45:03.468Z,8.64
2019-01-16T18:46:02.816Z,9.24
2019-01-16T18:47:02.757Z,8.44
2019-01-16T18:48:03.133Z,9.64
2019-01-16T18:49:03.633Z,9.78
2019-01-16T18:50:03.488Z,8.98
2019-01-16T18:51:03.468Z,9.62
2019-01-16T18:52:02.852Z,9.35
2019-01-16T18:53:03.055Z,9.28
2019-01-16T18:54:03.421Z,9.36
2019-01-16T18:55:02.735Z,9.74
2019-01-16T18:56:02.999Z,9.22
2019-01-16T18:57:03.565Z,9.54
2019-01-16T18:58:03.710Z,9.54
2019-01-16T18:59:03.647Z,9.3
2019-01-16T19:00:03.525Z,9.3
2019-01-16T19:01:02.897Z,9.16
2019-01-16T19:02:02.304Z,10.66
2019-01-16T19:03:03.402Z,10.66
2019-01-16T19:04:02.757Z,10.54
2019-01-16T19:05:03.545Z,10.31
2019-01-16T19:06:03.151Z,10.61
2019-01-16T19:07:03.233Z,11.37
2019-01-16T19:08:03.250Z,12.39
2019-01-16T19:09:03.766Z,12.38
2019-01-16T19:10:03.310Z,11.76
2019-01-16T19:11:02.781Z,12.04
2019-01-16T19:12:02.722Z,10.49
2019-01-16T19:13:03.428Z,9.64
2019-01-16T19:14:03.362Z,10.4
2019-01-16T19:15:02.787Z,9.72
2019-01-16T19:16:03.472Z,10.16
2019-01-16T19:17:03.073Z,8.52
2019-01-16T19:18:03.116Z,9.55
2019-01-16T19:19:03.633Z,8.49
2019-01-16T19:20:03.583Z,8.69
2019-01-16T19:21:03.277Z,9.99
2019-01-16T19:22:03.367Z,8.22
2019-01-16T19:23:02.661Z,9.39
2019-01-16T19:24:02.715Z,8.74
2019-01-16T19:25:03.523Z,8.36
2019-01-16T19:26:03.618Z,10.01
2019-01-16T19:27:02.986Z,9.37
2019-01-16T19:28:03.491Z,9.86
2019-01-16T19:29:03.465Z,9.93
2019-01-16T19:30:03.619Z,9.42
2019-01-16T19:31:02.607Z,9.28
2019-01-16T19:32:03.007Z,9.71
2019-01-16T19:33:03.245Z,11.42
2019-01-16T19:34:02.922Z,11.09
2019-01-16T19:35:02.964Z,9.56
2019-01-16T19:36:03.270Z,9.86
2019-01-16T19:37:02.861Z,10.77
2019-01-16T19:38:02.549Z,15.58
2019-01-16T19:39:03.237Z,13.67
2019-01-16T19:40:04.032Z,11.93
2019-01-16T19:41:02.943Z,12.01
2019-01-16T19:42:03.661Z,9.99
2019-01-16T19:43:03.025Z,10.12
2019-01-16T19:44:03.635Z,9.22
2019-01-16T19:45:03.575Z,8.8
2019-01-16T19:46:03.253Z,8.8
2019-01-16T19:47:03.080Z,9.94
2019-01-16T19:48:03.100Z,9.94
2019-01-16T19:49:02.933Z,10.01
2019-01-16T19:50:02.912Z,10.54
2019-01-16T19:51:03.659Z,10.09
2019-01-16T19:52:02.999Z,9.6
2019-01-16T19:53:04.985Z,10.31
2019-01-16T19:54:03.336Z,10.28
2019-01-16T19:55:02.801Z,10.32
2019-01-16T19:56:02.907Z,10.73
2019-01-16T19:57:02.826Z,10.48
2019-01-16T19:58:03.234Z,9.73
2019-01-16T19:59:02.994Z,12
2019-01-16T20:00:03.684Z,12.32
2019-01-16T20:01:02.978Z,12.41
2019-01-16T20:02:03.441Z,11.16
2019-01-16T20:03:02.935Z,10.55
2019-01-16T20:04:02.964Z,10.66
2019-01-16T20:05:03.029Z,9.74
2019-01-16T20:06:03.340Z,10.25
2019-01-16T20:07:03.457Z,11.17
2019-01-16T20:08:03.282Z,10.69
2019-01-16T20:09:02.967Z,11.12
2019-01-16T20:10:02.680Z,11.26
2019-01-16T20:11:03.534Z,10.95
2019-01-16T20:12:03.387Z,11.49
2019-01-16T20:13:03.027Z,11.32
2019-01-16T20:14:03.077Z,11.59
2019-01-16T20:15:02.729Z,11.69
2019-01-16T20:16:03.464Z,11.65
2019-01-16T20:17:03.508Z,11.36
2019-01-16T20:18:02.935Z,11.23
2019-01-16T20:19:03.235Z,13.2
2019-01-16T20:20:03.138Z,11.39
2019-01-16T20:21:02.982Z,13.49
2019-01-16T20:22:03.123Z,12.28
2019-01-16T20:23:03.050Z,15.08
2019-01-16T20:24:02.838Z,12.9
2019-01-16T20:25:03.608Z,13.08
2019-01-16T20:26:02.940Z,14.3
2019-01-16T20:27:03.829Z,13.37
2019-01-16T20:28:02.900Z,15.69
2019-01-16T20:29:03.516Z,13.94
2019-01-16T20:30:03.267Z,15.26
2019-01-16T20:31:03.708Z,14.5
2019-01-16T20:32:03.355Z,15.33
2019-01-16T20:33:02.936Z,12.94
2019-01-16T20:34:02.725Z,12.84
2019-01-16T20:35:10.051Z,12.84
2019-01-16T20:36:02.946Z,10.47
2019-01-16T20:37:03.151Z,10.47
2019-01-16T20:38:03.087Z,11.08
2019-01-16T20:39:02.736Z,12.65
2019-01-16T20:40:03.499Z,12.65
2019-01-16T20:41:03.010Z,12.89
2019-01-16T20:42:03.793Z,12.93
2019-01-16T20:43:03.112Z,13.58
2019-01-16T20:44:03.434Z,14.03
2019-01-16T20:45:03.252Z,13.38
2019-01-16T20:46:02.772Z,13.12
2019-01-16T20:47:02.654Z,12.15
2019-01-16T20:48:03.124Z,13.07
2019-01-16T20:49:03.247Z,12.74
2019-01-16T20:50:03.128Z,12.79
2019-01-16T20:51:03.120Z,12.8
2019-01-16T20:52:03.203Z,12.14
2019-01-16T20:53:03.634Z,12.5
2019-01-16T20:54:02.910Z,12.62
2019-01-16T20:55:03.583Z,11.46
2019-01-16T20:56:03.413Z,13.82
2019-01-16T20:57:02.642Z,12.52
2019-01-16T20:58:03.141Z,11.06
2019-01-16T20:59:02.570Z,12.66
2019-01-16T21:00:03.069Z,13.76
2019-01-16T21:01:02.993Z,11.73
2019-01-16T21:02:03.707Z,13.38
2019-01-16T21:03:03.372Z,13.16
2019-01-16T21:04:02.927Z,12.82
2019-01-16T21:05:03.554Z,12.46
2019-01-16T21:06:03.096Z,13.48
2019-01-16T21:07:03.857Z,11.51
2019-01-16T21:08:02.813Z,11.94
2019-01-16T21:09:03.237Z,11.73
2019-01-16T21:10:02.838Z,12.66
2019-01-16T21:11:03.223Z,13.19
2019-01-16T21:12:03.467Z,12.29
2019-01-16T21:13:03.488Z,11.92
2019-01-16T21:14:03.605Z,12.96
2019-01-16T21:15:03.188Z,12.09
2019-01-16T21:16:03.683Z,12.14
2019-01-16T21:17:03.520Z,11.42
2019-01-16T21:18:03.083Z,12.35
2019-01-16T21:19:02.731Z,13.09
2019-01-16T21:20:03.311Z,12.31
2019-01-16T21:21:03.584Z,12.98
2019-01-16T21:22:02.942Z,12.76
2019-01-16T21:23:03.474Z,12.69
2019-01-16T21:24:03.084Z,11.32
2019-01-16T21:25:03.546Z,11.32
2019-01-16T21:26:03.429Z,10.95
2019-01-16T21:27:02.960Z,10.9
2019-01-16T21:28:03.195Z,10.95
2019-01-16T21:29:03.448Z,11.93
2019-01-16T21:30:02.842Z,11.59
2019-01-16T21:31:03.081Z,11.56
2019-01-16T21:32:02.639Z,11.37
2019-01-16T21:33:03.565Z,12.44
2019-01-16T21:34:03.520Z,11.75
2019-01-16T21:35:02.823Z,11.21
2019-01-16T21:36:03.388Z,11.51
2019-01-16T21:37:03.228Z,10.92
2019-01-16T21:38:03.591Z,12.18
2019-01-16T21:39:03.598Z,11.9
2019-01-16T21:40:03.201Z,10.61
2019-01-16T21:41:02.999Z,10.46
2019-01-16T21:42:03.443Z,12.32
2019-01-16T21:43:03.262Z,12.11
2019-01-16T21:44:03.309Z,11.72
2019-01-16T21:45:03.027Z,12.26
2019-01-16T21:46:02.809Z,12.12
2019-01-16T21:47:03.527Z,11.88
2019-01-16T21:48:02.825Z,12.56
2019-01-16T21:49:02.866Z,14.77
2019-01-16T21:50:03.324Z,11.89
2019-01-16T21:51:03.454Z,13.14
2019-01-16T21:52:03.585Z,13.12
2019-01-16T21:53:02.921Z,13.26
2019-01-16T21:54:03.336Z,13.34
2019-01-16T21:55:03.598Z,12.09
2019-01-16T21:56:03.542Z,12.11
2019-01-16T21:57:02.995Z,12.32
2019-01-16T21:58:02.819Z,13.48
2019-01-16T21:59:02.742Z,12.76
2019-01-16T22:00:03.168Z,12.78
2019-01-16T22:01:02.814Z,13.25
2019-01-16T22:02:03.653Z,11.7
2019-01-16T22:03:03.609Z,13.64
2019-01-16T22:04:02.642Z,13.68
2019-01-16T22:05:03.564Z,12.8
2019-01-16T22:06:03.251Z,13.99
2019-01-16T22:07:03.186Z,13.78
2019-01-16T22:08:03.016Z,14.52
2019-01-16T22:09:03.686Z,14.94
2019-01-16T22:10:02.840Z,14.16
2019-01-16T22:11:02.612Z,14.32
2019-01-16T22:12:02.654Z,14.47
2019-01-16T22:13:03.603Z,12.69
2019-01-16T22:14:02.865Z,12.69
2019-01-16T22:15:02.959Z,13.37
2019-01-16T22:16:03.616Z,13.84
2019-01-16T22:17:03.567Z,13.84
2019-01-16T22:18:03.187Z,15.28
2019-01-16T22:19:02.948Z,14.89
2019-01-16T22:20:02.912Z,14.64
2019-01-16T22:21:03.323Z,13.33
2019-01-16T22:22:02.764Z,13.14
2019-01-16T22:23:03.204Z,13.72
2019-01-16T22:24:03.114Z,13.46
2019-01-16T22:25:03.676Z,14.35
2019-01-16T22:26:02.957Z,14.17
2019-01-16T22:27:02.811Z,13.89
2019-01-16T22:30:05.199Z,14.36
2019-01-16T22:31:03.569Z,13.66
2019-01-16T22:32:02.938Z,14.81
2019-01-16T22:33:03.010Z,15.24
2019-01-16T22:34:03.104Z,13.11
2019-01-16T22:35:03.760Z,13.32
2019-01-16T22:36:03.554Z,13.59
2019-01-16T22:37:02.925Z,14.35
2019-01-16T22:38:02.870Z,13.06
2019-01-16T22:39:03.484Z,13.71
2019-01-16T22:40:03.550Z,13.61
2019-01-16T22:41:03.721Z,15.32
2019-01-16T22:42:03.395Z,13.82
2019-01-16T22:43:03.508Z,13.06
2019-01-16T22:44:02.875Z,14.04
2019-01-16T22:45:03.115Z,13.08
2019-01-16T22:46:03.459Z,14.08
2019-01-16T22:47:03.422Z,14.88
2019-01-16T22:48:03.006Z,14.65
2019-01-16T22:49:03.383Z,14.71
2019-01-16T22:50:03.311Z,14.85
2019-01-16T22:51:02.786Z,13.25
2019-01-16T22:52:02.812Z,16.76
2019-01-16T22:53:02.685Z,15.25
2019-01-16T22:54:03.596Z,16.29
2019-01-16T22:55:03.384Z,14.28
2019-01-16T22:56:03.731Z,14.22
2019-01-16T22:57:02.982Z,13.91
2019-01-16T22:58:02.840Z,15.14
2019-01-16T22:59:03.066Z,14.87
2019-01-16T23:00:03.221Z,14.08
2019-01-16T23:01:02.941Z,14.72
2019-01-16T23:02:03.440Z,14.72
2019-01-16T23:03:03.332Z,15.2
2019-01-16T23:04:03.372Z,13.7
2019-01-16T23:05:02.978Z,13.7
2019-01-16T23:06:03.031Z,15.43
2019-01-16T23:07:03.599Z,16.08
2019-01-16T23:08:03.487Z,14.45
2019-01-16T23:09:02.881Z,14.93
2019-01-16T23:10:02.769Z,13.47
2019-01-16T23:11:03.025Z,13.28
2019-01-16T23:12:02.875Z,12.99
2019-01-16T23:13:02.956Z,12.71
2019-01-16T23:14:03.651Z,14.26
2019-01-16T23:15:03.822Z,13.51
2019-01-16T23:16:03.135Z,13.34
2019-01-16T23:17:03.528Z,13.55
2019-01-16T23:18:02.804Z,13.34
2019-01-16T23:19:02.845Z,12.4
2019-01-16T23:20:02.966Z,13.78
2019-01-16T23:21:03.654Z,12.55
2019-01-16T23:22:02.707Z,12.66
2019-01-16T23:23:02.691Z,12.2
2019-01-16T23:24:04.876Z,11.45
2019-01-16T23:25:02.935Z,12.19
2019-01-16T23:26:03.422Z,11.77
2019-01-16T23:27:02.961Z,12.25
2019-01-16T23:28:03.054Z,11.31
2019-01-16T23:29:03.724Z,10.57
2019-01-16T23:30:03.542Z,10.54
2019-01-16T23:31:02.997Z,10.88
2019-01-16T23:32:03.348Z,10.64
2019-01-16T23:33:02.815Z,10.66
2019-01-16T23:34:03.511Z,11.26
2019-01-16T23:35:03.385Z,11.02
2019-01-16T23:36:03.109Z,11.94
2019-01-16T23:37:03.556Z,12.11
2019-01-16T23:38:03.145Z,13.19
2019-01-16T23:39:03.519Z,11.72
2019-01-16T23:40:03.427Z,11.85
2019-01-16T23:41:02.940Z,11.11
2019-01-16T23:42:03.422Z,10.86
2019-01-16T23:43:03.373Z,11.12
2019-01-16T23:44:02.838Z,10.91
2019-01-16T23:45:03.169Z,10.15
2019-01-16T23:46:03.080Z,10.85
2019-01-16T23:47:02.801Z,11.64
2019-01-16T23:48:02.800Z,10.5
2019-01-16T23:49:03.027Z,10.48
2019-01-16T23:50:03.226Z,10.71
2019-01-16T23:51:03.118Z,11.14
2019-01-16T23:52:03.531Z,11.14
2019-01-16T23:53:02.682Z,9.15
2019-01-16T23:54:02.706Z,10.21
2019-01-16T23:55:03.350Z,9.11
2019-01-16T23:56:02.736Z,10.42
2019-01-16T23:57:03.305Z,9.4
2019-01-16T23:58:03.543Z,10.47
2019-01-16T23:59:02.843Z,11.15
